createdAt,value
2018-03-18T00:00:22.523Z,18.50
2018-03-18T00:02:50.889Z,16.60
2018-03-18T00:05:20.293Z,17.03
2018-03-18T00:07:47.915Z,18.27
2018-03-18T00:10:15.942Z,17.50
2018-03-18T00:12:44.537Z,15.57
2018-03-18T00:15:12.555Z,16.37
2018-03-18T00:17:42.452Z,16.77
2018-03-18T00:20:10.956Z,16.27
2018-03-18T00:22:39.012Z,15.80
2018-03-18T00:25:07.376Z,15.67
2018-03-18T00:27:35.373Z,17.10
2018-03-18T00:30:03.385Z,15.73
2018-03-18T00:32:31.007Z,17.03
2018-03-18T00:34:59.434Z,16.60
2018-03-18T00:37:27.417Z,16.10
2018-03-18T00:39:55.037Z,18.33
2018-03-18T00:42:23.160Z,14.80
2018-03-18T00:44:51.791Z,15.90
2018-03-18T00:47:19.633Z,14.03
2018-03-18T00:49:48.081Z,16.23
2018-03-18T00:52:15.731Z,13.93
2018-03-18T00:54:45.002Z,16.23
2018-03-18T00:57:14.730Z,13.93
2018-03-18T00:59:45.569Z,14.57
2018-03-18T01:02:14.815Z,14.03
2018-03-18T01:04:44.164Z,15.90
2018-03-18T01:07:13.658Z,16.80
2018-03-18T01:09:42.948Z,16.73
2018-03-18T01:12:12.208Z,15.87
2018-03-18T01:14:41.489Z,15.17
2018-03-18T01:17:10.840Z,17.23
2018-03-18T01:19:40.111Z,16.23
2018-03-18T01:22:09.349Z,16.37
2018-03-18T01:24:38.872Z,14.10
2018-03-18T01:27:08.101Z,14.60
2018-03-18T01:29:37.547Z,15.03
2018-03-18T01:32:06.908Z,15.07
2018-03-18T01:34:36.168Z,14.27
2018-03-18T01:37:05.639Z,13.73
2018-03-18T01:39:34.928Z,13.67
2018-03-18T01:42:04.172Z,14.17
2018-03-18T01:44:33.427Z,14.77
2018-03-18T01:47:02.669Z,14.40
2018-03-18T01:49:31.926Z,13.80
2018-03-18T01:52:01.191Z,14.83
2018-03-18T01:54:30.608Z,12.90
2018-03-18T01:56:59.933Z,14.13
2018-03-18T01:59:29.314Z,13.90
2018-03-18T02:01:58.603Z,14.10
2018-03-18T02:04:28.009Z,13.00
2018-03-18T02:06:57.341Z,13.10
2018-03-18T02:09:26.711Z,13.40
2018-03-18T02:11:56.144Z,12.83
2018-03-18T02:14:25.408Z,12.40
2018-03-18T02:16:54.681Z,13.63
2018-03-18T02:19:24.220Z,12.77
2018-03-18T02:21:54.723Z,12.93
2018-03-18T02:24:24.037Z,12.90
2018-03-18T02:26:53.311Z,12.97
2018-03-18T02:29:22.693Z,12.67
2018-03-18T02:31:52.199Z,12.70
2018-03-18T02:34:21.537Z,12.80
2018-03-18T02:36:51.464Z,12.80
2018-03-18T02:39:20.698Z,12.67
2018-03-18T02:41:49.953Z,13.80
2018-03-18T02:44:19.200Z,12.53
2018-03-18T02:46:48.460Z,13.63
2018-03-18T02:49:17.701Z,12.00
2018-03-18T02:51:47.213Z,12.10
2018-03-18T02:54:17.864Z,13.20
2018-03-18T02:56:47.203Z,11.80
2018-03-18T02:59:16.432Z,11.00
2018-03-18T03:01:46.327Z,13.37
2018-03-18T03:04:15.604Z,12.33
2018-03-18T03:06:44.854Z,13.70
2018-03-18T03:09:14.463Z,12.10
2018-03-18T03:11:44.380Z,12.20
2018-03-18T03:14:13.642Z,12.30
2018-03-18T03:16:44.419Z,12.57
2018-03-18T03:19:13.706Z,11.43
2018-03-18T03:21:42.955Z,10.83
2018-03-18T03:24:12.219Z,11.97
2018-03-18T03:26:41.451Z,11.47
2018-03-18T03:29:10.878Z,11.93
2018-03-18T03:31:40.168Z,12.10
2018-03-18T03:34:09.440Z,10.97
2018-03-18T03:36:38.881Z,11.00
2018-03-18T03:39:11.964Z,11.03
2018-03-18T03:41:41.190Z,10.90
2018-03-18T03:44:10.437Z,10.50
2018-03-18T03:46:39.782Z,11.90
2018-03-18T03:49:09.128Z,11.43
2018-03-18T03:51:38.433Z,10.23
2018-03-18T03:54:07.681Z,11.37
2018-03-18T03:56:36.924Z,10.97
2018-03-18T03:59:06.322Z,12.20
2018-03-18T04:01:35.551Z,10.90
2018-03-18T04:04:04.901Z,13.03
2018-03-18T04:06:34.164Z,10.53
2018-03-18T04:09:03.556Z,11.03
2018-03-18T04:11:32.823Z,11.50
2018-03-18T04:14:02.241Z,10.90
2018-03-18T04:16:31.808Z,11.53
2018-03-18T04:19:01.101Z,11.63
2018-03-18T04:21:30.334Z,11.63
2018-03-18T04:23:59.580Z,12.30
2018-03-18T04:26:28.917Z,11.03
2018-03-18T04:28:58.182Z,11.33
2018-03-18T04:31:27.432Z,12.17
2018-03-18T04:33:56.834Z,12.13
2018-03-18T04:36:26.074Z,11.60
2018-03-18T04:38:55.362Z,11.23
2018-03-18T04:41:25.969Z,11.80
2018-03-18T04:43:55.236Z,12.17
2018-03-18T04:46:24.512Z,12.00
2018-03-18T04:48:53.767Z,10.60
2018-03-18T04:51:23.041Z,11.90
2018-03-18T04:53:52.294Z,11.10
2018-03-18T04:56:21.551Z,10.67
2018-03-18T04:58:50.801Z,11.60
2018-03-18T05:01:20.104Z,11.40
2018-03-18T05:03:49.349Z,11.73
2018-03-18T05:06:18.628Z,11.10
2018-03-18T05:08:47.860Z,11.87
2018-03-18T05:11:17.138Z,10.47
2018-03-18T05:13:46.401Z,9.73
2018-03-18T05:16:15.687Z,11.37
2018-03-18T05:18:44.916Z,10.90
2018-03-18T05:21:14.202Z,10.90
2018-03-18T05:23:43.553Z,12.03
2018-03-18T05:26:13.028Z,12.67
2018-03-18T05:28:42.283Z,10.40
2018-03-18T05:31:11.539Z,12.03
2018-03-18T05:33:40.820Z,10.57
2018-03-18T05:36:10.198Z,11.80
2018-03-18T05:38:39.975Z,11.00
2018-03-18T05:41:09.232Z,11.20
2018-03-18T05:43:38.542Z,11.63
2018-03-18T05:46:07.907Z,11.87
2018-03-18T05:48:37.146Z,11.60
2018-03-18T05:51:06.402Z,11.53
2018-03-18T05:53:35.903Z,12.07
2018-03-18T05:56:05.351Z,11.67
2018-03-18T05:58:34.604Z,11.17
2018-03-18T06:01:04.373Z,11.47
2018-03-18T06:03:33.737Z,11.50
2018-03-18T06:06:03.151Z,11.57
2018-03-18T06:08:32.385Z,9.63
2018-03-18T06:11:01.785Z,11.93
2018-03-18T06:13:31.063Z,11.27
2018-03-18T06:16:00.453Z,11.40
2018-03-18T06:18:29.713Z,12.40
2018-03-18T06:20:58.956Z,11.40
2018-03-18T06:23:28.253Z,11.90
2018-03-18T06:25:57.491Z,11.53
2018-03-18T06:28:26.748Z,10.57
2018-03-18T06:30:55.975Z,11.63
2018-03-18T06:33:25.277Z,11.80
2018-03-18T06:35:54.651Z,10.73
2018-03-18T06:38:24.081Z,11.83
2018-03-18T06:40:53.505Z,11.70
2018-03-18T06:43:22.900Z,11.30
2018-03-18T06:45:52.314Z,10.53
2018-03-18T06:48:21.644Z,11.40
2018-03-18T06:50:50.879Z,11.70
2018-03-18T06:53:20.181Z,12.50
2018-03-18T06:55:49.538Z,11.73
2018-03-18T06:58:18.820Z,11.40
2018-03-18T07:00:48.110Z,10.87
2018-03-18T07:03:17.365Z,13.47
2018-03-18T07:05:46.642Z,12.07
2018-03-18T07:08:15.986Z,11.53
2018-03-18T07:10:45.313Z,10.83
2018-03-18T07:13:14.596Z,11.57
2018-03-18T07:15:43.865Z,11.70
2018-03-18T07:18:13.289Z,10.63
2018-03-18T07:20:44.449Z,11.30
2018-03-18T07:23:13.885Z,12.50
2018-03-18T07:25:43.130Z,10.80
2018-03-18T07:28:12.405Z,11.40
2018-03-18T07:30:41.710Z,12.83
2018-03-18T07:33:11.000Z,12.27
2018-03-18T07:35:40.354Z,12.10
2018-03-18T07:38:09.667Z,11.57
2018-03-18T07:40:38.916Z,11.57
2018-03-18T07:43:08.183Z,12.03
2018-03-18T07:45:37.750Z,10.83
2018-03-18T07:48:06.992Z,11.27
2018-03-18T07:50:36.239Z,12.30
2018-03-18T07:53:05.548Z,11.53
2018-03-18T07:55:34.882Z,13.00
2018-03-18T07:58:04.119Z,11.37
2018-03-18T08:00:33.443Z,11.57
2018-03-18T08:03:02.692Z,11.73
2018-03-18T08:05:31.952Z,12.43
2018-03-18T08:08:01.272Z,11.13
2018-03-18T08:10:30.557Z,11.30
2018-03-18T08:12:59.944Z,11.83
2018-03-18T08:15:29.267Z,11.33
2018-03-18T08:17:58.564Z,11.67
2018-03-18T08:20:28.038Z,12.03
2018-03-18T08:22:57.282Z,11.77
2018-03-18T08:25:26.556Z,13.30
2018-03-18T08:27:55.825Z,12.97
2018-03-18T08:30:25.063Z,11.63
2018-03-18T08:32:54.296Z,12.17
2018-03-18T08:35:23.560Z,11.83
2018-03-18T08:37:52.792Z,11.37
2018-03-18T08:40:22.100Z,10.70
2018-03-18T08:42:51.372Z,12.00
2018-03-18T08:45:20.682Z,11.13
2018-03-18T08:47:49.897Z,11.53
2018-03-18T08:50:19.257Z,12.70
2018-03-18T08:52:48.577Z,11.10
2018-03-18T08:55:17.856Z,12.13
2018-03-18T08:57:47.130Z,12.90
2018-03-18T09:00:25.380Z,12.50
2018-03-18T09:02:55.328Z,12.50
2018-03-18T09:05:24.573Z,11.30
2018-03-18T09:07:53.831Z,10.80
2018-03-18T09:10:24.560Z,12.20
2018-03-18T09:12:53.878Z,11.03
2018-03-18T09:15:23.185Z,11.60
2018-03-18T09:17:52.536Z,11.20
2018-03-18T09:20:21.959Z,11.67
2018-03-18T09:23:02.182Z,12.30
2018-03-18T09:25:31.896Z,11.03
2018-03-18T09:28:01.192Z,12.10
2018-03-18T09:30:30.417Z,12.40
2018-03-18T09:33:00.076Z,12.37
2018-03-18T09:35:29.397Z,11.10
2018-03-18T09:37:59.302Z,11.70
2018-03-18T09:40:28.951Z,11.90
2018-03-18T09:42:59.688Z,13.27
2018-03-18T09:45:28.924Z,12.07
2018-03-18T09:47:58.211Z,11.90
2018-03-18T09:50:27.666Z,11.60
2018-03-18T09:53:00.012Z,12.00
2018-03-18T09:55:29.256Z,12.27
2018-03-18T09:58:01.828Z,12.00
2018-03-18T10:00:31.115Z,10.90
2018-03-18T10:03:01.451Z,12.60
2018-03-18T10:05:31.298Z,11.20
2018-03-18T10:08:01.913Z,11.27
2018-03-18T10:10:31.132Z,11.53
2018-03-18T10:13:01.306Z,12.60
2018-03-18T10:15:32.456Z,12.03
2018-03-18T10:18:03.143Z,11.00
2018-03-18T10:20:33.279Z,11.60
2018-03-18T10:23:08.898Z,13.73
2018-03-18T10:25:38.934Z,14.80
2018-03-18T10:28:08.449Z,12.43
2018-03-18T10:30:37.685Z,12.90
2018-03-18T10:33:07.644Z,12.20
2018-03-18T10:35:36.882Z,12.77
2018-03-18T10:38:06.662Z,12.40
2018-03-18T10:40:35.960Z,12.17
2018-03-18T10:43:05.213Z,11.67
2018-03-18T10:45:36.247Z,11.60
2018-03-18T10:48:05.854Z,11.73
2018-03-18T10:50:35.105Z,12.23
2018-03-18T10:53:08.898Z,11.70
2018-03-18T10:55:38.359Z,13.00
2018-03-18T10:58:09.116Z,12.63
2018-03-18T11:00:43.943Z,13.17
2018-03-18T11:03:15.026Z,13.33
2018-03-18T11:05:44.774Z,11.17
2018-03-18T11:08:14.005Z,11.70
2018-03-18T11:10:44.200Z,12.83
2018-03-18T11:13:15.133Z,12.63
2018-03-18T11:15:44.523Z,13.17
2018-03-18T11:18:13.751Z,13.37
2018-03-18T11:20:43.255Z,12.90
2018-03-18T11:23:12.483Z,12.30
2018-03-18T11:25:43.281Z,12.93
2018-03-18T11:28:12.586Z,13.43
2018-03-18T11:30:41.878Z,12.47
2018-03-18T11:33:11.375Z,13.23
2018-03-18T11:35:40.832Z,14.93
2018-03-18T11:38:10.271Z,14.13
2018-03-18T11:40:39.626Z,13.60
2018-03-18T11:43:08.919Z,11.93
2018-03-18T11:45:38.171Z,13.10
2018-03-18T11:48:09.702Z,13.40
2018-03-18T11:50:38.970Z,12.37
2018-03-18T11:53:08.195Z,12.90
2018-03-18T11:55:37.443Z,11.97
2018-03-18T11:58:08.372Z,12.50
2018-03-18T12:00:37.840Z,12.47
2018-03-18T12:03:07.075Z,12.83
2018-03-18T12:05:36.337Z,12.50
2018-03-18T12:08:05.934Z,13.47
2018-03-18T12:10:35.191Z,12.23
2018-03-18T12:13:04.859Z,12.10
2018-03-18T12:15:34.113Z,13.37
2018-03-18T12:18:03.450Z,11.80
2018-03-18T12:20:33.646Z,11.73
2018-03-18T12:23:03.017Z,13.70
2018-03-18T12:25:32.353Z,11.73
2018-03-18T12:28:01.587Z,12.03
2018-03-18T12:30:30.842Z,11.70
2018-03-18T12:33:00.493Z,11.50
2018-03-18T12:35:29.817Z,12.30
2018-03-18T12:37:59.153Z,11.20
2018-03-18T12:40:33.764Z,11.27
2018-03-18T12:43:09.230Z,11.70
2018-03-18T12:45:38.471Z,11.70
2018-03-18T12:48:07.764Z,12.70
2018-03-18T12:50:39.040Z,11.23
2018-03-18T12:53:08.620Z,12.10
2018-03-18T12:55:37.915Z,12.67
2018-03-18T12:58:07.448Z,12.87
2018-03-18T13:00:36.695Z,11.17
2018-03-18T13:03:06.442Z,12.73
2018-03-18T13:05:35.999Z,12.03
2018-03-18T13:08:05.255Z,12.83
2018-03-18T13:10:34.501Z,12.87
2018-03-18T13:13:04.040Z,11.80
2018-03-18T13:15:31.614Z,11.43
2018-03-18T13:18:00.013Z,12.17
2018-03-18T13:20:28.285Z,11.97
2018-03-18T13:22:57.262Z,11.90
2018-03-18T13:25:28.560Z,11.03
2018-03-18T13:27:56.587Z,11.20
2018-03-18T13:30:24.580Z,12.90
2018-03-18T13:32:52.965Z,12.70
2018-03-18T13:35:22.145Z,12.37
2018-03-18T13:37:49.802Z,12.00
2018-03-18T13:40:17.830Z,12.70
2018-03-18T13:42:45.444Z,12.47
2018-03-18T13:45:14.239Z,12.40
2018-03-18T13:47:42.285Z,11.60
2018-03-18T13:50:09.977Z,12.40
2018-03-18T13:52:38.407Z,12.00
2018-03-18T13:55:06.468Z,11.60
2018-03-18T13:57:35.613Z,12.07
2018-03-18T14:00:03.217Z,11.47
2018-03-18T14:02:32.447Z,11.70
2018-03-18T14:05:00.589Z,13.03
2018-03-18T14:07:28.202Z,12.93
2018-03-18T14:09:56.595Z,12.43
2018-03-18T14:12:24.973Z,13.23
2018-03-18T14:14:54.444Z,11.50
2018-03-18T14:17:22.351Z,11.90
2018-03-18T14:19:50.120Z,12.83
2018-03-18T14:22:18.530Z,12.90
2018-03-18T14:24:47.632Z,12.50
2018-03-18T14:27:15.211Z,12.40
2018-03-18T14:29:44.356Z,11.77
2018-03-18T14:32:12.805Z,13.33
2018-03-18T14:34:40.981Z,12.53
2018-03-18T14:37:10.284Z,12.57
2018-03-18T14:39:38.368Z,11.97
2018-03-18T14:42:06.352Z,13.40
2018-03-18T14:44:34.060Z,12.83
2018-03-18T14:47:02.055Z,11.77
2018-03-18T14:49:32.480Z,12.50
2018-03-18T14:52:00.141Z,13.60
2018-03-18T14:54:28.552Z,12.27
2018-03-18T14:56:56.900Z,12.40
2018-03-18T14:59:25.484Z,13.00
2018-03-18T15:01:54.858Z,11.53
2018-03-18T15:04:23.452Z,11.93
2018-03-18T15:06:51.431Z,11.80
2018-03-18T15:09:19.864Z,11.70
2018-03-18T15:11:48.270Z,12.40
2018-03-18T15:14:22.139Z,11.70
2018-03-18T15:16:50.214Z,11.60
2018-03-18T15:19:18.663Z,11.47
2018-03-18T15:21:46.675Z,12.50
2018-03-18T15:24:14.335Z,12.77
2018-03-18T15:26:51.960Z,12.53
2018-03-18T15:29:20.366Z,12.03
2018-03-18T15:31:47.983Z,12.40
2018-03-18T15:34:16.308Z,12.17
2018-03-18T15:36:44.351Z,11.87
2018-03-18T15:39:12.941Z,12.17
2018-03-18T15:41:42.636Z,12.03
2018-03-18T15:44:11.045Z,12.60
2018-03-18T15:46:40.182Z,12.87
2018-03-18T15:49:08.118Z,11.80
2018-03-18T15:51:36.116Z,13.13
2018-03-18T15:54:05.593Z,11.93
2018-03-18T15:56:34.158Z,12.60
2018-03-18T15:59:02.978Z,13.97
2018-03-18T16:01:31.825Z,12.30
2018-03-18T16:03:59.406Z,12.77
2018-03-18T16:06:27.824Z,11.93
2018-03-18T16:08:55.800Z,13.00
2018-03-18T16:11:25.126Z,12.57
2018-03-18T16:13:53.252Z,12.83
2018-03-18T16:16:21.801Z,12.90
2018-03-18T16:18:51.341Z,13.00
2018-03-18T16:21:18.992Z,13.90
2018-03-18T16:23:47.340Z,15.80
2018-03-18T16:26:15.729Z,13.10
2018-03-18T16:28:44.612Z,13.30
2018-03-18T16:31:15.755Z,13.87
2018-03-18T16:33:43.731Z,12.60
2018-03-18T16:36:11.784Z,13.33
2018-03-18T16:38:40.136Z,12.50
2018-03-18T16:41:08.696Z,13.27
2018-03-18T16:43:37.064Z,14.73
2018-03-18T16:46:05.445Z,11.93
2018-03-18T16:48:33.805Z,13.90
2018-03-18T16:51:02.151Z,12.30
2018-03-18T16:53:30.508Z,12.70
2018-03-18T16:55:58.876Z,12.87
2018-03-18T16:58:27.277Z,12.57
2018-03-18T17:00:55.623Z,11.07
2018-03-18T17:03:23.658Z,11.93
2018-03-18T17:05:51.698Z,13.20
2018-03-18T17:08:20.865Z,11.50
2018-03-18T17:10:48.916Z,12.43
2018-03-18T17:13:17.269Z,11.90
2018-03-18T17:15:45.642Z,13.93
2018-03-18T17:18:14.120Z,12.10
2018-03-18T17:20:41.713Z,13.83
2018-03-18T17:23:09.720Z,12.70
2018-03-18T17:25:38.085Z,12.80
2018-03-18T17:28:06.467Z,12.80
2018-03-18T17:30:35.394Z,12.93
2018-03-18T17:33:03.028Z,11.47
2018-03-18T17:35:31.318Z,11.60
2018-03-18T17:37:59.172Z,11.40
2018-03-18T17:40:27.244Z,11.80
2018-03-18T17:42:56.275Z,12.23
2018-03-18T17:45:36.459Z,11.50
2018-03-18T17:48:16.192Z,12.80
2018-03-18T17:50:55.597Z,13.10
2018-03-18T17:53:36.941Z,12.97
2018-03-18T17:56:16.776Z,11.70
2018-03-18T17:58:44.801Z,12.07
2018-03-18T18:01:12.968Z,11.00
2018-03-18T18:03:47.909Z,11.40
2018-03-18T18:06:16.308Z,12.63
2018-03-18T18:08:44.280Z,13.23
2018-03-18T18:11:12.450Z,12.67
2018-03-18T18:13:40.844Z,16.17
2018-03-18T18:16:08.851Z,11.83
2018-03-18T18:18:37.199Z,11.63
2018-03-18T18:21:04.856Z,11.77
2018-03-18T18:23:33.644Z,11.10
2018-03-18T18:26:02.499Z,12.37
2018-03-18T18:28:31.243Z,11.77
2018-03-18T18:30:59.448Z,12.70
2018-03-18T18:33:27.958Z,12.53
2018-03-18T18:35:56.448Z,11.50
2018-03-18T18:38:24.915Z,12.23
2018-03-18T18:40:52.962Z,10.87
2018-03-18T18:43:21.066Z,12.27
2018-03-18T18:45:50.740Z,11.73
2018-03-18T18:48:20.115Z,12.17
2018-03-18T18:50:47.854Z,11.47
2018-03-18T18:53:15.905Z,12.20
2018-03-18T18:55:44.384Z,11.60
2018-03-18T18:58:12.376Z,11.17
2018-03-18T19:00:50.823Z,12.27
2018-03-18T19:03:19.349Z,12.37
2018-03-18T19:05:47.782Z,16.37
2018-03-18T19:08:16.241Z,14.30
2018-03-18T19:10:44.352Z,13.03
2018-03-18T19:13:12.728Z,13.77
2018-03-18T19:15:40.710Z,12.77
2018-03-18T19:18:08.311Z,12.63
2018-03-18T19:20:36.342Z,10.97
2018-03-18T19:23:04.706Z,11.73
2018-03-18T19:25:33.081Z,12.43
2018-03-18T19:28:01.409Z,13.33
2018-03-18T19:30:29.766Z,11.97
2018-03-18T19:32:58.120Z,13.40
2018-03-18T19:35:26.789Z,11.37
2018-03-18T19:37:54.801Z,12.30
2018-03-18T19:40:23.172Z,13.07
2018-03-18T19:42:51.518Z,12.43
2018-03-18T19:45:19.525Z,12.67
2018-03-18T19:47:47.115Z,12.63
2018-03-18T19:50:15.134Z,11.90
2018-03-18T19:52:43.136Z,12.77
2018-03-18T19:55:11.177Z,13.00
2018-03-18T19:57:39.152Z,11.57
2018-03-18T20:00:07.205Z,11.90
2018-03-18T20:02:35.222Z,11.40
2018-03-18T20:05:02.868Z,12.53
2018-03-18T20:07:30.945Z,12.03
2018-03-18T20:09:59.276Z,11.57
2018-03-18T20:12:27.677Z,11.83
2018-03-18T20:14:55.689Z,13.10
2018-03-18T20:17:23.290Z,12.00
2018-03-18T20:19:51.424Z,11.73
2018-03-18T20:22:19.463Z,11.30
2018-03-18T20:24:47.825Z,11.80
2018-03-18T20:27:16.276Z,12.80
2018-03-18T20:29:44.641Z,11.80
2018-03-18T20:32:12.991Z,12.17
2018-03-18T20:34:41.338Z,12.37
2018-03-18T20:37:09.818Z,11.60
2018-03-18T20:39:38.166Z,11.40
2018-03-18T20:42:06.522Z,13.67
2018-03-18T20:44:34.880Z,13.07
2018-03-18T20:47:03.612Z,13.60
2018-03-18T20:49:31.624Z,12.40
2018-03-18T20:52:00.041Z,11.97
2018-03-18T20:54:28.166Z,13.77
2018-03-18T20:56:59.178Z,12.23
2018-03-18T20:59:28.924Z,12.67
2018-03-18T21:01:58.560Z,13.30
2018-03-18T21:04:28.021Z,11.53
2018-03-18T21:06:56.443Z,12.00
2018-03-18T21:09:25.687Z,12.40
2018-03-18T21:11:55.795Z,11.90
2018-03-18T21:14:24.187Z,13.90
2018-03-18T21:16:54.654Z,12.07
2018-03-18T21:19:22.774Z,12.10
2018-03-18T21:21:51.130Z,13.00
2018-03-18T21:24:21.566Z,15.33
2018-03-18T21:26:50.164Z,13.33
2018-03-18T21:29:18.223Z,11.73
2018-03-18T21:31:45.941Z,11.70
2018-03-18T21:34:14.518Z,11.87
2018-03-18T21:36:42.539Z,11.63
2018-03-18T21:39:10.521Z,13.00
2018-03-18T21:41:38.700Z,11.97
2018-03-18T21:44:06.330Z,12.13
2018-03-18T21:46:35.934Z,12.83
2018-03-18T21:49:09.364Z,12.17
2018-03-18T21:51:37.379Z,14.23
2018-03-18T21:54:06.593Z,12.00
2018-03-18T21:56:35.455Z,13.07
2018-03-18T21:59:04.034Z,12.03
2018-03-18T22:01:32.450Z,12.77
2018-03-18T22:04:00.520Z,12.27
2018-03-18T22:06:28.508Z,12.73
2018-03-18T22:08:56.936Z,14.07
2018-03-18T22:11:25.312Z,13.00
2018-03-18T22:13:53.396Z,13.50
2018-03-18T22:16:22.439Z,12.50
2018-03-18T22:18:50.822Z,13.87
2018-03-18T22:21:19.192Z,11.97
2018-03-18T22:23:47.689Z,13.40
2018-03-18T22:26:15.689Z,13.67
2018-03-18T22:28:50.256Z,12.50
2018-03-18T22:31:22.937Z,11.83
2018-03-18T22:33:51.928Z,11.73
2018-03-18T22:36:27.519Z,13.27
2018-03-18T22:38:55.444Z,12.50
2018-03-18T22:41:23.928Z,13.40
2018-03-18T22:43:52.557Z,12.90
2018-03-18T22:46:20.552Z,13.03
2018-03-18T22:48:48.932Z,12.80
2018-03-18T22:51:17.353Z,13.50
2018-03-18T22:53:45.713Z,12.47
2018-03-18T22:56:13.765Z,11.60
2018-03-18T22:58:41.360Z,12.70
2018-03-18T23:01:09.390Z,14.27
2018-03-18T23:03:37.966Z,12.60
2018-03-18T23:06:05.998Z,12.30
2018-03-18T23:08:34.375Z,13.17
2018-03-18T23:11:02.457Z,11.57
2018-03-18T23:13:30.344Z,12.00
2018-03-18T23:15:58.131Z,12.63
2018-03-18T23:18:26.559Z,12.30
2018-03-18T23:20:54.613Z,12.80
2018-03-18T23:23:22.207Z,12.43
2018-03-18T23:25:50.800Z,11.57
2018-03-18T23:28:18.862Z,12.07
2018-03-18T23:30:47.011Z,12.77
2018-03-18T23:33:15.366Z,12.80
2018-03-18T23:35:43.870Z,11.87
2018-03-18T23:38:12.211Z,12.00
2018-03-18T23:40:40.369Z,14.17
2018-03-18T23:43:08.435Z,12.77
2018-03-18T23:45:36.856Z,12.43
2018-03-18T23:48:04.562Z,13.17
2018-03-18T23:50:32.383Z,13.07
2018-03-18T23:53:00.738Z,11.53
2018-03-18T23:55:28.347Z,12.77
2018-03-18T23:57:56.806Z,13.13
